createdAt,value
2022-09-01T00:00:13.431Z,100765.73
2022-09-01T00:03:01.208Z,100769.67
2022-09-01T00:05:32.779Z,100764.00
2022-09-01T00:08:00.668Z,100767.32
2022-09-01T00:10:28.357Z,100768.33
2022-09-01T00:12:56.246Z,100764.35
2022-09-01T00:15:24.579Z,100768.50
2022-09-01T00:17:53.021Z,100768.33
2022-09-01T00:20:21.089Z,100764.27
2022-09-01T00:22:49.643Z,100763.94
2022-09-01T00:25:20.016Z,100761.11
2022-09-01T00:27:49.253Z,100762.05
2022-09-01T00:30:17.786Z,100761.05
2022-09-01T00:32:46.828Z,100762.89
2022-09-01T00:35:16.515Z,100765.04
2022-09-01T00:37:44.815Z,100766.06
2022-09-01T00:40:14.183Z,100765.03
2022-09-01T00:42:43.004Z,100760.36
2022-09-01T00:45:11.512Z,100756.64
2022-09-01T00:47:39.581Z,100754.52
2022-09-01T00:50:09.085Z,100756.30
2022-09-01T00:52:43.709Z,100761.21
2022-09-01T00:55:32.758Z,100758.83
2022-09-01T00:58:01.591Z,100757.23
2022-09-01T01:00:31.256Z,100755.65
2022-09-01T01:02:59.369Z,100755.11
2022-09-01T01:05:34.169Z,100755.06
2022-09-01T01:08:03.075Z,100756.98
2022-09-01T01:10:33.084Z,100757.71
2022-09-01T01:13:04.760Z,100761.84
2022-09-01T01:15:32.648Z,100760.96
2022-09-01T01:18:00.509Z,100761.31
2022-09-01T01:20:49.113Z,100757.45
2022-09-01T01:23:24.984Z,100756.84
2022-09-01T01:25:56.539Z,100753.61
2022-09-01T01:28:33.386Z,100754.42
2022-09-01T01:31:06.214Z,100750.97
2022-09-01T01:33:41.583Z,100752.33
2022-09-01T01:36:17.008Z,100757.46
2022-09-01T01:38:49.220Z,100759.83
2022-09-01T01:41:22.711Z,100753.20
2022-09-01T01:43:51.121Z,100753.77
2022-09-01T01:46:20.707Z,100750.79
2022-09-01T01:48:52.453Z,100753.00
2022-09-01T01:51:24.991Z,100752.73
2022-09-01T01:53:53.499Z,100751.84
2022-09-01T01:56:25.657Z,100747.38
2022-09-01T01:58:56.425Z,100748.26
2022-09-01T02:01:25.871Z,100746.02
2022-09-01T02:03:54.754Z,100745.78
2022-09-01T02:06:25.023Z,100746.80
2022-09-01T02:08:58.058Z,100746.85
2022-09-01T02:11:26.597Z,100746.09
2022-09-01T02:13:57.220Z,100747.17
2022-09-01T02:16:28.115Z,100743.65
2022-09-01T02:18:57.122Z,100744.70
2022-09-01T02:21:27.073Z,100742.80
2022-09-01T02:24:02.194Z,100741.34
2022-09-01T02:26:38.566Z,100737.52
2022-09-01T02:29:10.077Z,100739.86
2022-09-01T02:31:40.494Z,100739.23
2022-09-01T02:34:13.969Z,100744.90
2022-09-01T02:36:50.043Z,100746.09
2022-09-01T02:39:30.379Z,100747.27
2022-09-01T02:41:58.518Z,100746.39
2022-09-01T02:44:31.029Z,100748.15
2022-09-01T02:47:00.973Z,100748.80
2022-09-01T02:49:30.026Z,100750.45
2022-09-01T02:52:01.824Z,100748.59
2022-09-01T02:54:32.626Z,100747.14
2022-09-01T02:57:01.591Z,100748.21
2022-09-01T02:59:31.078Z,100745.91
2022-09-01T03:02:01.152Z,100743.75
2022-09-01T03:04:34.834Z,100747.35
2022-09-01T03:07:05.151Z,100743.88
2022-09-01T03:09:32.898Z,100746.19
2022-09-01T03:12:00.764Z,100744.19
2022-09-01T03:14:30.038Z,100742.55
2022-09-01T03:17:00.601Z,100745.70
2022-09-01T03:19:32.274Z,100748.65
2022-09-01T03:22:00.240Z,100757.41
2022-09-01T03:24:30.838Z,100753.59
2022-09-01T03:26:58.579Z,100757.95
2022-09-01T03:29:26.313Z,100758.86
2022-09-01T03:31:55.130Z,100760.80
2022-09-01T03:34:23.656Z,100766.76
2022-09-01T03:36:54.487Z,100766.70
2022-09-01T03:39:28.335Z,100768.16
2022-09-01T03:41:58.099Z,100770.36
2022-09-01T03:44:26.505Z,100768.58
2022-09-01T03:46:54.251Z,100768.86
2022-09-01T03:49:25.299Z,100767.41
2022-09-01T03:51:58.481Z,100769.13
2022-09-01T03:54:30.240Z,100767.42
2022-09-01T03:56:59.884Z,100769.27
2022-09-01T03:59:28.507Z,100766.95
2022-09-01T04:01:58.525Z,100768.36
2022-09-01T04:04:26.793Z,100768.02
2022-09-01T04:06:55.270Z,100764.41
2022-09-01T04:09:23.158Z,100767.90
2022-09-01T04:11:51.654Z,100767.11
2022-09-01T04:14:20.404Z,100767.04
2022-09-01T04:17:08.460Z,100770.52
2022-09-01T04:19:39.282Z,100762.85
2022-09-01T04:22:08.085Z,100760.99
2022-09-01T04:24:46.172Z,100762.00
2022-09-01T04:27:15.383Z,100760.57
2022-09-01T04:29:46.535Z,100759.93
2022-09-01T04:32:15.839Z,100755.55
2022-09-01T04:34:48.972Z,100757.80
2022-09-01T04:37:21.144Z,100760.98
2022-09-01T04:39:56.838Z,100758.92
2022-09-01T04:42:29.597Z,100758.80
2022-09-01T04:45:02.074Z,100756.69
2022-09-01T04:47:42.225Z,100756.79
2022-09-01T04:50:14.908Z,100762.03
2022-09-01T04:52:48.135Z,100763.17
2022-09-01T04:55:29.905Z,100765.50
2022-09-01T04:58:00.042Z,100762.05
2022-09-01T05:00:32.314Z,100764.36
2022-09-01T05:03:06.053Z,100765.80
2022-09-01T05:06:01.194Z,100767.98
2022-09-01T05:08:32.925Z,100765.23
2022-09-01T05:11:08.450Z,100765.95
2022-09-01T05:13:45.448Z,100766.64
2022-09-01T05:16:15.891Z,100764.84
2022-09-01T05:18:48.980Z,100761.95
2022-09-01T05:21:22.550Z,100760.37
2022-09-01T05:23:51.910Z,100758.58
2022-09-01T05:26:29.976Z,100760.85
2022-09-01T05:29:00.555Z,100762.55
2022-09-01T05:31:37.842Z,100757.59
2022-09-01T05:34:09.578Z,100760.05
2022-09-01T05:36:42.747Z,100758.30
2022-09-01T05:39:14.811Z,100755.29
2022-09-01T05:41:43.969Z,100755.45
2022-09-01T05:44:14.091Z,100755.19
2022-09-01T05:46:44.571Z,100755.74
2022-09-01T05:49:16.199Z,100757.30
2022-09-01T05:51:50.778Z,100761.90
2022-09-01T05:54:23.470Z,100762.80
2022-09-01T05:56:53.515Z,100764.52
2022-09-01T05:59:26.057Z,100766.39
2022-09-01T06:01:59.294Z,100767.08
2022-09-01T06:04:27.963Z,100764.32
2022-09-01T06:07:05.975Z,100763.86
2022-09-01T06:09:44.622Z,100762.93
2022-09-01T06:12:23.111Z,100761.84
2022-09-01T06:14:53.731Z,100761.52
2022-09-01T06:17:25.153Z,100761.45
2022-09-01T06:19:56.207Z,100762.61
2022-09-01T06:22:26.819Z,100763.89
2022-09-01T06:25:01.102Z,100767.05
2022-09-01T06:27:34.529Z,100770.08
2022-09-01T06:30:02.930Z,100770.54
2022-09-01T06:32:35.397Z,100769.39
2022-09-01T06:35:04.122Z,100769.33
2022-09-01T06:37:34.580Z,100767.35
2022-09-01T06:52:11.857Z,100764.98
2022-09-01T06:54:41.517Z,100762.78
2022-09-01T06:59:57.819Z,100768.23
2022-09-01T07:02:27.106Z,100771.09
2022-09-01T07:08:19.841Z,100771.51
2022-09-01T07:14:16.563Z,100767.88
2022-09-01T07:16:51.835Z,100766.96
2022-09-01T07:19:51.524Z,100768.05
2022-09-01T07:22:38.299Z,100767.74
2022-09-01T07:28:10.350Z,100765.92
2022-09-01T07:30:48.864Z,100767.45
2022-09-01T07:36:29.543Z,100768.51
2022-09-01T07:42:31.579Z,100765.64
2022-09-01T07:45:26.939Z,100769.98
2022-09-01T07:48:03.515Z,100769.86
2022-09-01T07:53:34.556Z,100777.73
2022-09-01T07:56:09.720Z,100781.05
2022-09-01T07:58:42.213Z,100781.34
2022-09-01T08:01:13.325Z,100777.10
2022-09-01T08:03:42.324Z,100774.34
2022-09-01T08:06:13.716Z,100776.91
2022-09-01T08:08:42.383Z,100775.92
2022-09-01T08:11:10.144Z,100777.83
2022-09-01T08:13:41.779Z,100776.02
2022-09-01T08:16:18.585Z,100778.98
2022-09-01T08:18:49.350Z,100763.75
2022-09-01T08:21:52.546Z,100773.05
2022-09-01T08:24:26.513Z,100773.45
2022-09-01T08:26:54.227Z,100772.19
2022-09-01T08:29:21.905Z,100767.19
2022-09-01T08:31:50.871Z,100765.15
2022-09-01T08:34:19.820Z,100768.05
2022-09-01T08:36:48.527Z,100767.82
2022-09-01T08:39:16.567Z,100766.47
2022-09-01T08:42:01.732Z,100766.89
2022-09-01T08:44:34.830Z,100770.11
2022-09-01T08:47:07.181Z,100766.66
2022-09-01T08:49:44.362Z,100768.75
2022-09-01T08:52:39.555Z,100766.17
2022-09-01T08:55:25.981Z,100764.33
2022-09-01T08:57:59.907Z,100766.35
2022-09-01T09:00:57.895Z,100761.50
2022-09-01T09:03:51.627Z,100759.16
2022-09-01T09:06:26.536Z,100753.09
2022-09-01T09:08:58.090Z,100757.65
2022-09-01T09:11:45.836Z,100760.11
2022-09-01T09:14:32.042Z,100762.91
2022-09-01T09:17:00.440Z,100763.95
2022-09-01T09:19:34.323Z,100767.52
2022-09-01T09:22:06.011Z,100768.34
2022-09-01T09:24:52.489Z,100766.54
2022-09-01T09:27:29.548Z,100765.59
2022-09-01T09:30:05.692Z,100770.08
2022-09-01T09:33:24.897Z,100772.66
2022-09-01T09:35:46.679Z,100772.83
2022-09-01T09:38:28.470Z,100768.14
2022-09-01T09:44:01.180Z,100763.05
2022-09-01T09:46:32.004Z,100759.27
2022-09-01T09:49:13.822Z,100756.83
2022-09-01T09:51:44.783Z,100757.27
2022-09-01T09:54:15.830Z,100757.44
2022-09-01T09:56:46.396Z,100751.89
2022-09-01T09:59:39.845Z,100750.33
2022-09-01T10:02:33.233Z,100747.23
2022-09-01T10:05:22.020Z,100747.70
2022-09-01T10:07:50.070Z,100739.56
2022-09-01T10:10:57.579Z,100740.58
2022-09-01T10:13:31.458Z,100731.04
2022-09-01T10:16:05.043Z,100721.57
2022-09-01T10:18:39.043Z,100719.54
2022-09-01T10:21:16.648Z,100714.31
2022-09-01T10:23:44.967Z,100713.13
2022-09-01T10:26:19.493Z,100717.61
2022-09-01T10:28:56.078Z,100715.45
2022-09-01T10:31:29.402Z,100713.34
2022-09-01T10:34:02.854Z,100716.91
2022-09-01T10:36:35.945Z,100721.64
2022-09-01T10:39:08.753Z,100721.78
2022-09-01T10:41:48.232Z,100718.06
2022-09-01T10:44:22.669Z,100723.79
2022-09-01T10:46:51.592Z,100716.73
2022-09-01T10:49:46.803Z,100716.49
2022-09-01T10:52:43.726Z,100711.73
2022-09-01T10:55:32.546Z,100713.20
2022-09-01T10:59:30.326Z,100706.97
2022-09-01T11:03:53.383Z,100708.86
2022-09-01T11:07:11.699Z,100705.83
2022-09-01T11:09:39.789Z,100704.33
2022-09-01T11:12:29.697Z,100705.08
2022-09-01T11:15:02.039Z,100701.31
2022-09-01T11:17:37.418Z,100707.52
2022-09-01T11:20:36.784Z,100707.96
2022-09-01T11:23:11.675Z,100710.89
2022-09-01T11:25:43.846Z,100709.06
2022-09-01T11:28:14.891Z,100705.29
2022-09-01T11:30:55.342Z,100700.47
2022-09-01T11:33:40.129Z,100699.27
2022-09-01T11:36:20.381Z,100704.58
2022-09-01T11:38:51.343Z,100709.55
2022-09-01T11:41:33.981Z,100704.73
2022-09-01T11:44:04.335Z,100702.75
2022-09-01T11:46:33.714Z,100700.04
2022-09-01T11:49:29.062Z,100695.87
2022-09-01T11:51:57.826Z,100702.28
2022-09-01T11:54:25.750Z,100707.95
2022-09-01T11:56:53.602Z,100704.23
2022-09-01T11:59:36.341Z,100708.03
2022-09-01T12:02:04.289Z,100708.64
2022-09-01T12:04:55.406Z,100707.71
2022-09-01T12:07:39.205Z,100707.42
2022-09-01T12:10:38.433Z,100705.72
2022-09-01T12:13:12.996Z,100704.37
2022-09-01T12:16:06.960Z,100704.98
2022-09-01T12:18:41.695Z,100701.60
2022-09-01T12:21:22.930Z,100694.64
2022-09-01T12:23:50.900Z,100691.02
2022-09-01T12:26:22.276Z,100690.75
2022-09-01T12:28:50.912Z,100693.27
2022-09-01T12:31:26.214Z,100690.20
2022-09-01T12:33:56.046Z,100692.66
2022-09-01T12:36:34.795Z,100691.34
2022-09-01T12:39:17.716Z,100693.69
2022-09-01T12:41:48.687Z,100698.75
2022-09-01T12:44:38.407Z,100695.30
2022-09-01T12:47:13.436Z,100688.60
2022-09-01T12:49:48.073Z,100680.34
2022-09-01T12:52:22.271Z,100682.21
2022-09-01T12:55:11.931Z,100688.36
2022-09-01T12:57:45.418Z,100686.80
2022-09-01T13:00:20.697Z,100685.91
2022-09-01T13:03:08.219Z,100683.06
2022-09-01T13:05:42.389Z,100680.43
2022-09-01T13:08:13.159Z,100676.42
2022-09-01T13:10:43.601Z,100676.43
2022-09-01T13:13:12.648Z,100670.92
2022-09-01T13:16:12.686Z,100672.71
2022-09-01T13:21:32.117Z,100674.75
2022-09-01T13:24:00.686Z,100671.48
2022-09-01T13:26:31.430Z,100671.20
2022-09-01T13:29:00.126Z,100667.98
2022-09-01T13:31:30.061Z,100670.69
2022-09-01T13:34:21.804Z,100670.52
2022-09-01T13:36:51.575Z,100665.98
2022-09-01T13:39:22.806Z,100665.00
2022-09-01T13:41:50.748Z,100661.27
2022-09-01T13:44:18.821Z,100661.30
2022-09-01T13:49:44.108Z,100663.01
2022-09-01T13:52:13.284Z,100661.84
2022-09-01T13:54:42.043Z,100657.20
2022-09-01T13:57:11.676Z,100660.48
2022-09-01T13:59:39.554Z,100667.45
2022-09-01T14:02:07.822Z,100668.94
2022-09-01T14:04:35.610Z,100669.85
2022-09-01T14:07:03.942Z,100668.36
2022-09-01T14:09:31.844Z,100672.53
2022-09-01T14:11:59.576Z,100677.43
2022-09-01T14:15:10.867Z,100675.41
2022-09-01T14:17:15.869Z,100672.00
2022-09-01T14:19:44.181Z,100670.48
2022-09-01T14:22:12.598Z,100675.02
2022-09-01T14:24:41.012Z,100670.09
2022-09-01T14:27:09.216Z,100671.59
2022-09-01T14:32:07.897Z,100677.48
2022-09-01T14:34:36.292Z,100680.84
2022-09-01T14:37:04.269Z,100679.59
2022-09-01T14:39:32.428Z,100677.80
2022-09-01T14:42:00.119Z,100682.16
2022-09-01T14:44:27.785Z,100683.45
2022-09-01T14:46:56.170Z,100679.38
2022-09-01T14:49:23.870Z,100682.93
2022-09-01T14:54:40.700Z,100676.91
2022-09-01T14:59:56.274Z,100668.10
2022-09-01T15:02:25.404Z,100669.96
2022-09-01T15:04:52.964Z,100668.27
2022-09-01T15:07:21.349Z,100667.36
2022-09-01T15:09:49.819Z,100665.70
2022-09-01T15:12:17.624Z,100667.23
2022-09-01T15:14:45.690Z,100664.95
2022-09-01T15:17:13.459Z,100663.18
2022-09-01T15:19:41.210Z,100665.32
2022-09-01T15:22:10.888Z,100670.02
2022-09-01T15:24:38.797Z,100668.70
2022-09-01T15:27:06.881Z,100668.36
2022-09-01T15:29:34.935Z,100665.95
2022-09-01T15:32:03.589Z,100667.89
2022-09-01T15:34:31.900Z,100664.19
2022-09-01T15:36:59.570Z,100663.94
2022-09-01T15:39:34.866Z,100669.32
2022-09-01T15:42:06.364Z,100664.14
2022-09-01T15:44:35.806Z,100664.41
2022-09-01T15:47:04.165Z,100671.16
2022-09-01T15:49:31.828Z,100670.52
2022-09-01T15:51:59.469Z,100670.34
2022-09-01T15:54:30.486Z,100667.65
2022-09-01T15:56:58.559Z,100666.80
2022-09-01T15:59:26.486Z,100666.93
2022-09-01T16:01:57.621Z,100666.09
2022-09-01T16:04:27.917Z,100666.16
2022-09-01T16:06:56.839Z,100666.08
2022-09-01T16:09:26.765Z,100662.67
2022-09-01T16:11:55.666Z,100667.48
2022-09-01T16:14:23.795Z,100665.28
2022-09-01T16:16:59.703Z,100665.10
2022-09-01T16:19:45.901Z,100662.08
2022-09-01T16:22:35.838Z,100665.64
2022-09-01T16:25:23.602Z,100665.49
2022-09-01T16:27:51.483Z,100669.14
2022-09-01T16:30:23.472Z,100664.98
2022-09-01T16:32:51.620Z,100667.05
2022-09-01T16:35:24.266Z,100666.31
2022-09-01T16:38:13.646Z,100664.58
2022-09-01T16:40:56.463Z,100668.48
2022-09-01T16:43:24.714Z,100667.52
2022-09-01T16:46:12.556Z,100668.98
2022-09-01T16:48:47.119Z,100669.27
2022-09-01T16:51:27.973Z,100668.94
2022-09-01T16:54:10.285Z,100675.80
2022-09-01T16:56:58.462Z,100679.84
2022-09-01T16:59:54.762Z,100679.96
2022-09-01T17:02:38.579Z,100681.82
2022-09-01T17:05:32.892Z,100686.85
2022-09-01T17:08:23.948Z,100690.02
2022-09-01T17:11:05.177Z,100691.34
2022-09-01T17:13:40.167Z,100692.97
2022-09-01T17:16:12.827Z,100688.66
2022-09-01T17:18:44.402Z,100693.42
2022-09-01T17:21:22.153Z,100696.28
2022-09-01T17:24:13.973Z,100699.25
2022-09-01T17:26:47.789Z,100700.52
2022-09-01T17:29:23.285Z,100705.38
2022-09-01T17:32:03.143Z,100709.27
2022-09-01T17:34:56.463Z,100717.27
2022-09-01T17:37:51.017Z,100721.34
2022-09-01T17:40:23.970Z,100725.63
2022-09-01T17:43:27.377Z,100724.17
2022-09-01T17:46:14.244Z,100722.96
2022-09-01T17:48:56.880Z,100729.08
2022-09-01T17:51:27.469Z,100730.64
2022-09-01T17:54:07.388Z,100736.86
2022-09-01T17:57:09.201Z,100739.20
2022-09-01T17:59:41.817Z,100745.46
2022-09-01T18:02:42.124Z,100749.70
2022-09-01T18:05:24.458Z,100752.55
2022-09-01T18:08:17.754Z,100756.82
2022-09-01T18:10:54.810Z,100759.29
2022-09-01T18:13:42.493Z,100758.48
2022-09-01T18:16:19.732Z,100762.55
2022-09-01T18:18:49.040Z,100768.28
2022-09-01T18:21:18.546Z,100772.25
2022-09-01T18:23:49.111Z,100774.27
2022-09-01T18:26:32.193Z,100776.16
2022-09-01T18:29:01.664Z,100776.95
2022-09-01T18:31:29.407Z,100779.18
2022-09-01T18:34:34.738Z,100779.73
2022-09-01T18:37:11.552Z,100776.23
2022-09-01T18:39:53.661Z,100783.67
2022-09-01T18:42:29.292Z,100788.67
2022-09-01T18:45:05.272Z,100790.88
2022-09-01T18:47:39.550Z,100795.62
2022-09-01T18:50:55.782Z,100792.60
2022-09-01T18:53:38.725Z,100793.90
2022-09-01T18:56:31.466Z,100797.08
2022-09-01T18:59:32.173Z,100799.08
2022-09-01T19:02:47.639Z,100798.30
2022-09-01T19:05:38.167Z,100804.44
2022-09-01T19:08:27.642Z,100805.73
2022-09-01T19:11:07.693Z,100806.45
2022-09-01T19:13:53.402Z,100804.80
2022-09-01T19:16:43.371Z,100805.59
2022-09-01T19:19:13.824Z,100811.15
2022-09-01T19:21:43.761Z,100811.02
2022-09-01T19:24:17.259Z,100808.11
2022-09-01T19:26:48.305Z,100811.96
2022-09-01T19:29:21.382Z,100816.14
2022-09-01T19:32:01.868Z,100821.57
2022-09-01T19:34:36.881Z,100820.39
2022-09-01T19:37:05.771Z,100820.60
2022-09-01T19:39:44.481Z,100822.98
2022-09-01T19:42:34.521Z,100824.86
2022-09-01T19:45:07.864Z,100826.73
2022-09-01T19:48:11.512Z,100826.96
2022-09-01T19:50:59.769Z,100822.55
2022-09-01T19:53:27.401Z,100826.69
2022-09-01T19:56:04.739Z,100828.73
2022-09-01T19:58:42.561Z,100834.33
2022-09-01T20:01:15.943Z,100838.45
2022-09-01T20:03:47.586Z,100840.30
2022-09-01T20:09:22.787Z,100841.26
2022-09-01T20:11:56.324Z,100841.44
2022-09-01T20:14:33.136Z,100843.53
2022-09-01T20:17:08.985Z,100841.58
2022-09-01T20:19:44.946Z,100846.05
2022-09-01T20:22:12.933Z,100846.02
2022-09-01T20:24:40.674Z,100849.18
2022-09-01T20:27:35.133Z,100850.58
2022-09-01T20:30:10.958Z,100855.66
2022-09-01T20:32:56.362Z,100860.78
2022-09-01T20:35:35.176Z,100863.39
2022-09-01T20:38:31.301Z,100863.39
2022-09-01T20:41:03.834Z,100868.52
2022-09-01T20:43:37.250Z,100867.81
2022-09-01T20:46:05.260Z,100867.30
2022-09-01T20:48:39.573Z,100869.80
2022-09-01T20:51:11.782Z,100870.48
2022-09-01T20:54:16.613Z,100873.23
2022-09-01T20:56:59.573Z,100873.30
2022-09-01T20:59:45.501Z,100870.35
2022-09-01T21:02:42.673Z,100871.81
2022-09-01T21:05:19.345Z,100873.99
2022-09-01T21:08:25.954Z,100873.27
2022-09-01T21:11:21.641Z,100873.52
2022-09-01T21:14:04.701Z,100878.60
2022-09-01T21:17:04.056Z,100877.91
2022-09-01T21:19:56.454Z,100883.07
2022-09-01T21:22:24.215Z,100881.25
2022-09-01T21:24:52.625Z,100881.27
2022-09-01T21:27:23.845Z,100885.08
2022-09-01T21:30:21.001Z,100889.17
2022-09-01T21:32:48.845Z,100888.61
2022-09-01T21:35:18.907Z,100889.02
2022-09-01T21:37:46.661Z,100891.89
2022-09-01T21:40:15.676Z,100897.02
2022-09-01T21:42:49.372Z,100905.01
2022-09-01T21:45:18.837Z,100902.41
2022-09-01T21:47:47.998Z,100900.46
2022-09-01T21:50:17.528Z,100901.90
2022-09-01T21:52:45.106Z,100901.23
2022-09-01T21:55:13.413Z,100905.14
2022-09-01T21:57:42.186Z,100900.80
2022-09-01T22:00:14.582Z,100902.50
2022-09-01T22:02:46.561Z,100896.15
2022-09-01T22:05:14.625Z,100893.04
2022-09-01T22:07:45.362Z,100893.00
2022-09-01T22:10:22.346Z,100895.52
2022-09-01T22:12:50.399Z,100896.08
2022-09-01T22:15:21.416Z,100895.30
2022-09-01T22:17:50.520Z,100898.67
2022-09-01T22:20:22.351Z,100904.31
2022-09-01T22:22:50.784Z,100904.45
2022-09-01T22:25:20.802Z,100906.02
2022-09-01T22:27:48.757Z,100909.01
2022-09-01T22:30:16.799Z,100914.52
2022-09-01T22:32:45.405Z,100910.52
2022-09-01T22:35:14.356Z,100910.41
2022-09-01T22:37:42.530Z,100913.55
2022-09-01T22:40:11.754Z,100913.50
2022-09-01T22:42:39.732Z,100913.63
2022-09-01T22:45:08.472Z,100912.88
2022-09-01T22:47:38.516Z,100910.73
2022-09-01T22:50:08.870Z,100910.86
2022-09-01T22:52:37.540Z,100911.84
2022-09-01T22:55:06.007Z,100908.37
2022-09-01T22:57:35.780Z,100911.18
2022-09-01T23:00:08.894Z,100912.17
2022-09-01T23:02:36.879Z,100911.11
2022-09-01T23:05:06.074Z,100913.65
2022-09-01T23:07:37.717Z,100909.17
2022-09-01T23:10:08.723Z,100907.94
2022-09-01T23:12:36.517Z,100915.01
2022-09-01T23:15:05.545Z,100912.50
2022-09-01T23:17:33.239Z,100912.77
2022-09-01T23:20:02.271Z,100913.98
2022-09-01T23:22:30.028Z,100914.57
2022-09-01T23:24:57.769Z,100913.55
2022-09-01T23:27:25.499Z,100913.90
2022-09-01T23:29:53.217Z,100919.84
2022-09-01T23:32:20.901Z,100918.17
2022-09-01T23:34:48.579Z,100922.56
2022-09-01T23:37:16.634Z,100921.53
2022-09-01T23:39:44.454Z,100923.77
2022-09-01T23:42:12.559Z,100926.40
2022-09-01T23:44:40.348Z,100923.39
2022-09-01T23:47:08.144Z,100922.52
2022-09-01T23:49:35.829Z,100923.70
2022-09-01T23:52:03.651Z,100921.39
2022-09-01T23:54:31.516Z,100916.65
2022-09-01T23:56:59.427Z,100916.11
2022-09-01T23:59:28.767Z,100918.18
